Address 0x050f586cf98a8a1cf4a4551f0f1797e71b1d792e 2

 
Txn Hash
Block
From
To
Value [Txn Fee]
0x2d22edf7fa96116479bf1f0e223ee9bbb2737d128753ea9bde1a84e83225bc1322247762021-10-14 19:40:1413 days 16 hrs ago0x050f586cf98a8a1cf4a4551f0f1797e71b1d792eOUT 0xfc5a1a6eb076a2c7ad06ed22c90d7e710e35ad0a0 ETH0.000720423419 ETH
0x86e68c0229a33b4622f6566fd23321d4ab172e4a21714ce1c82e77447579e00d22247272021-10-14 19:37:0313 days 16 hrs ago0x050f586cf98a8a1cf4a4551f0f1797e71b1d792eOUT 0xfc5a1a6eb076a2c7ad06ed22c90d7e710e35ad0a0 ETH0.000918050657 ETH
0xe27b5cd7dfaaaf91542bb62dc00f65d927cdd24f7ed50ed8f84b081d3ab2255f22247022021-10-14 19:33:4213 days 16 hrs ago0x050f586cf98a8a1cf4a4551f0f1797e71b1d792eOUT 0xa906f338cb21815cbc4bc87ace9e68c87ef8d8f10 ETH0.000920532855 ETH
0x55d5deee4681cce241e18f27c741bb347168f3f929abd3bfd0b58d12156a9b3921677842021-10-12 22:43:0015 days 13 hrs ago0x050f586cf98a8a1cf4a4551f0f1797e71b1d792eOUT 0xa906f338cb21815cbc4bc87ace9e68c87ef8d8f10 ETH0.000790585246 ETH
0x3a50994116fa266b81deacf798d286dcaac7c839931b5c80836b98f178c0a87721677322021-10-12 22:40:4215 days 13 hrs ago0x050f586cf98a8a1cf4a4551f0f1797e71b1d792eOUT 0xa906f338cb21815cbc4bc87ace9e68c87ef8d8f10 ETH0.002199124277 ETH
0x773fe431753b10754885a578496d6da6b8d6b496069b289fc4956952687df30621677152021-10-12 22:39:5715 days 13 hrs ago0x050f586cf98a8a1cf4a4551f0f1797e71b1d792eOUT Uniswap V3: Router3 ETH0.000965840472 ETH
0xe560ef5e1eba5520e031c3b216427a52b7b3a6233c8d0f65f37eaccc5320a4f821676922021-10-12 22:36:5615 days 13 hrs ago0x050f586cf98a8a1cf4a4551f0f1797e71b1d792eOUT 0x82af49447d8a07e3bd95bd0d56f35241523fbab10 ETH0.000589797382 ETH
0xb595edbbe6dfad9fde3c81c8f8ea7a6b2eb56d575561ae25506caf25f4c322d921676552021-10-12 22:34:3415 days 13 hrs ago0x050f586cf98a8a1cf4a4551f0f1797e71b1d792eOUT 0x82af49447d8a07e3bd95bd0d56f35241523fbab13 ETH0.000747115393 ETH
0xd597aff9711bfdef5f80de33f90be6fa1f4923fc840f91fc87aa27c08d43e06521676102021-10-12 22:33:0515 days 13 hrs ago0x050f586cf98a8a1cf4a4551f0f1797e71b1d792eOUT0x000000000000000000000000000000000000006e3.05 ETH0 ETH
0x9ff4412f4f907ba19c8091d47dbdf8e8ae342aede53f5bf09190398456dab88611345172021-09-17 10:14:2341 days 2 hrs ago0x050f586cf98a8a1cf4a4551f0f1797e71b1d792eOUT 0x1899434830318edb494f61a365be7e222183ab930.01 ETH0.001200632871 ETH
0x0fda24c2c3c9ca6301c980f96f26945cbf057a2264cf54a15ff35f70dea7a3f511344502021-09-17 10:12:1841 days 2 hrs ago0x050f586cf98a8a1cf4a4551f0f1797e71b1d792eOUT 0x1899434830318edb494f61a365be7e222183ab930.02 ETH0.001922390293 ETH
0x4fef6541284344043993d87924898339f2b1500533935def1b43e9a119bcd6c911342992021-09-17 10:09:0741 days 2 hrs ago0x050f586cf98a8a1cf4a4551f0f1797e71b1d792eOUT Uniswap V3: Router0 ETH0.000776589088 ETH
0x9d09b529d5c5a9fd1955a6460c9d7cd363211ec888bed7413dbf0b0f248cdeb011342552021-09-17 10:07:3541 days 2 hrs ago0x050f586cf98a8a1cf4a4551f0f1797e71b1d792eOUT 0xff970a61a04b1ca14834a43f5de4533ebddb5cc80 ETH0.000684370429 ETH
0xcb6be538cb7f5c4bcaf928cc2644fe5ac4cade4320dd5fa4e783aafec823f27f10779582021-09-16 16:14:5941 days 20 hrs ago0x050f586cf98a8a1cf4a4551f0f1797e71b1d792eOUT 0xfaa928bdadd0ee68827fba6e321efda650923da00.05 ETH0.001504038774 ETH
0xfa2559b2bf4d11ffb1308440da466a36f76b8c46a9841593d8f12bde57dfc76310779052021-09-16 16:14:5941 days 20 hrs ago0x050f586cf98a8a1cf4a4551f0f1797e71b1d792eOUT 0xfaa928bdadd0ee68827fba6e321efda650923da00.05 ETH0.001504965562 ETH
0x8a8d320f4a3ed351171aa6ca13eb4e00510a2acfa939691bcac98f7fbb2b521510778832021-09-16 16:14:3941 days 20 hrs ago0x050f586cf98a8a1cf4a4551f0f1797e71b1d792eOUT 0xfaa928bdadd0ee68827fba6e321efda650923da00.05 ETH0.001634890312 ETH
0x5eea84cbb8639fddc22f48623e0b9cfb786728a9272583fa3f62b450bc69e64210778152021-09-16 16:14:3941 days 20 hrs ago0x050f586cf98a8a1cf4a4551f0f1797e71b1d792eOUT 0xfaa928bdadd0ee68827fba6e321efda650923da00.05 ETH0.000457860449 ETH
0x3fdca6eabe4e6eb5c9aa1754215ff2f03b16eac4024df50af98d18e3d8b77cec10777772021-09-16 16:13:1341 days 20 hrs ago0x050f586cf98a8a1cf4a4551f0f1797e71b1d792eOUT 0xfaa928bdadd0ee68827fba6e321efda650923da00.05 ETH0.00045787875 ETH
0xa2abd660aa02801ff5b0b1bf06b75f591a3342e1926c72efac707a5b9863723710769722021-09-16 16:06:1841 days 20 hrs ago0x050f586cf98a8a1cf4a4551f0f1797e71b1d792eOUT0x000000000000000000000000000000000000006e0.16 ETH0 ETH
0xcb0e03a0b563c2e413071fb8a0ebc265b4a5c26335ba3b654e314a4569fcb05d9136232021-09-15 11:24:5243 days 53 mins ago0x050f586cf98a8a1cf4a4551f0f1797e71b1d792eOUT0x8924b724ae68cb972b7adce32576deb0f4f77a130.02 ETH0.000398895194 ETH
0x46a04341073c71380c91b2df6dff9d71e2b7ca3ae468d5d735ddc73e7f1989149134122021-09-15 11:22:1243 days 56 mins ago0x050f586cf98a8a1cf4a4551f0f1797e71b1d792eOUT 0xa39ead9429ab35bfa7aa85786bcdda500a78155d0.075 ETH0.000965439717 ETH
0xfa4f644653d39dd85cddc76aabe84beb82bdbc6fd8bf4d0503d522cfbc7087b89132582021-09-15 11:19:0243 days 59 mins ago0x050f586cf98a8a1cf4a4551f0f1797e71b1d792eOUT0x000000000000000000000000000000000000006e0.1075 ETH0 ETH
0x8a11be788714e423a1687f1e8cb886dbf2d186e30e148ee1ff3ae4b7ab298e249116912021-09-15 10:57:4143 days 1 hr ago0x050f586cf98a8a1cf4a4551f0f1797e71b1d792eOUT 0xa39ead9429ab35bfa7aa85786bcdda500a78155d0.065 ETH0.000840402442 ETH
0x3694d8524c81bfb7e5a477e9c33b90ccce4a085e1411f6390a9adaa56dba804d9116272021-09-15 10:56:0543 days 1 hr ago0x050f586cf98a8a1cf4a4551f0f1797e71b1d792eOUT 0xa39ead9429ab35bfa7aa85786bcdda500a78155d0.099 ETH0.000966049897 ETH
0x6c097927119509c0ab816e8882eeef15eb88b8e18fa22542767a427181c986479115792021-09-15 10:55:1443 days 1 hr ago0x050f586cf98a8a1cf4a4551f0f1797e71b1d792eOUT0x000000000000000000000000000000000000006e0.13 ETH0 ETH
[ Download CSV Export 
Parent Txn Hash Block From To Value
Loading

Contract Name:
0 ETH

Compiler Version
0

Optimization Enabled:
0 ETH

Other Settings:
-NA-
Block Transaction Gas Used Reward
Age Block Fee Address BC Fee Address Voting Power Jailed Incoming
Block Uncle Number Difficulty Gas Used Reward
Loading
Loading
Make sure to use the "Vote Down" button for any spammy posts, and the "Vote Up" for interesting conversations.